Waco's Hourly Summary for Saturday, April 15, 2017
Hour Temp
(f)
RH
(%)
Solar Rad.
(MJ/m2)
Rainfall
(in)
Wind
(mph)
4/15/2017 12:00 AM 68 74 0 0 3.23
4/15/2017 1:00 AM 67 78 0 0 3.52
4/15/2017 2:00 AM 66 81 0 0 3.74
4/15/2017 3:00 AM 65 84 0 0 3.67
4/15/2017 4:00 AM 65 86 0 0 3.77
4/15/2017 5:00 AM 65 86 0 0 2
4/15/2017 6:00 AM 65 88 0 0 1.12
4/15/2017 7:00 AM 65 89 0 0 1.82
4/15/2017 8:00 AM 65 90 0.12 0 2.38
4/15/2017 9:00 AM 66 83 0.41 0 3.46
4/15/2017 10:00 AM 69 78 0.91 0 5.77
4/15/2017 11:00 AM 71 66 1.65 0 7
4/15/2017 12:00 PM 74 60 2.48 0 7.83
4/15/2017 1:00 PM 76 59 1.99 0 8.18
4/15/2017 2:00 PM 77 56 2.21 0 7.98
4/15/2017 3:00 PM 78 54 1.86 0 7.49
4/15/2017 4:00 PM 79 52 1.78 0 6.6
4/15/2017 5:00 PM 80 51 1.86 0 6.56
4/15/2017 6:00 PM 80 52 1.4 0 6.17
4/15/2017 7:00 PM 80 53 0.73 0 4.88
4/15/2017 8:00 PM 76 58 0.08 0 3.92
4/15/2017 9:00 PM 73 65 0 0 2.81
4/15/2017 10:00 PM 72 69 0 0 2.72
4/15/2017 11:00 PM 71 71 0 0 4.31
Data Summary 71 70 17.48 0.00 4.62